sensor_id;sensor_type;location;lat;lon;timestamp;P1;durP1;ratioP1;P2;durP2;ratioP2
10150;SDS011;5116;52.318;4.644;2022-09-20T00:03:35;0.80;;;0.80;;
10150;SDS011;5116;52.318;4.644;2022-09-20T00:06:03;0.87;;;0.83;;
10150;SDS011;5116;52.318;4.644;2022-09-20T00:08:32;0.80;;;0.80;;
10150;SDS011;5116;52.318;4.644;2022-09-20T00:11:04;0.80;;;0.80;;
10150;SDS011;5116;52.318;4.644;2022-09-20T00:13:32;0.70;;;0.70;;
10150;SDS011;5116;52.318;4.644;2022-09-20T00:16:02;0.80;;;0.80;;
10150;SDS011;5116;52.318;4.644;2022-09-20T00:18:30;2.87;;;1.00;;
10150;SDS011;5116;52.318;4.644;2022-09-20T00:20:58;0.80;;;0.80;;
10150;SDS011;5116;52.318;4.644;2022-09-20T00:23:25;0.90;;;0.90;;
10150;SDS011;5116;52.318;4.644;2022-09-20T00:25:56;0.90;;;0.90;;
10150;SDS011;5116;52.318;4.644;2022-09-20T00:28:24;0.70;;;0.70;;
10150;SDS011;5116;52.318;4.644;2022-09-20T00:30:52;0.70;;;0.70;;
10150;SDS011;5116;52.318;4.644;2022-09-20T00:33:20;0.67;;;0.67;;
10150;SDS011;5116;52.318;4.644;2022-09-20T00:35:47;0.90;;;0.90;;
10150;SDS011;5116;52.318;4.644;2022-09-20T00:38:15;0.70;;;0.70;;
10150;SDS011;5116;52.318;4.644;2022-09-20T00:40:43;1.10;;;0.70;;
10150;SDS011;5116;52.318;4.644;2022-09-20T00:43:14;1.07;;;0.80;;
10150;SDS011;5116;52.318;4.644;2022-09-20T00:45:43;0.80;;;0.80;;
10150;SDS011;5116;52.318;4.644;2022-09-20T00:48:21;1.10;;;1.00;;
10150;SDS011;5116;52.318;4.644;2022-09-20T00:50:53;0.80;;;0.80;;
10150;SDS011;5116;52.318;4.644;2022-09-20T00:53:22;0.80;;;0.80;;
10150;SDS011;5116;52.318;4.644;2022-09-20T00:55:55;0.80;;;0.80;;
10150;SDS011;5116;52.318;4.644;2022-09-20T00:58:24;0.93;;;0.87;;
10150;SDS011;5116;52.318;4.644;2022-09-20T01:00:54;0.70;;;0.70;;
10150;SDS011;5116;52.318;4.644;2022-09-20T01:03:23;1.10;;;1.10;;
10150;SDS011;5116;52.318;4.644;2022-09-20T01:05:52;0.80;;;0.80;;
10150;SDS011;5116;52.318;4.644;2022-09-20T01:08:20;0.80;;;0.80;;
10150;SDS011;5116;52.318;4.644;2022-09-20T01:10:50;0.90;;;0.90;;
10150;SDS011;5116;52.318;4.644;2022-09-20T01:13:17;1.03;;;1.00;;
10150;SDS011;5116;52.318;4.644;2022-09-20T01:15:45;0.90;;;0.90;;
10150;SDS011;5116;52.318;4.644;2022-09-20T01:18:13;1.00;;;1.00;;
10150;SDS011;5116;52.318;4.644;2022-09-20T01:20:42;0.80;;;0.80;;
10150;SDS011;5116;52.318;4.644;2022-09-20T01:28:23;0.80;;;0.80;;
10150;SDS011;5116;52.318;4.644;2022-09-20T01:30:55;0.90;;;0.90;;
10150;SDS011;5116;52.318;4.644;2022-09-20T01:35:53;0.83;;;0.83;;
10150;SDS011;5116;52.318;4.644;2022-09-20T01:41:00;1.23;;;1.00;;
10150;SDS011;5116;52.318;4.644;2022-09-20T01:43:32;0.80;;;0.80;;
10150;SDS011;5116;52.318;4.644;2022-09-20T01:46:02;0.90;;;0.90;;
10150;SDS011;5116;52.318;4.644;2022-09-20T01:48:38;0.80;;;0.80;;
10150;SDS011;5116;52.318;4.644;2022-09-20T01:51:16;0.90;;;0.90;;
10150;SDS011;5116;52.318;4.644;2022-09-20T01:56:43;0.80;;;0.80;;
10150;SDS011;5116;52.318;4.644;2022-09-20T02:06:54;0.90;;;0.90;;
10150;SDS011;5116;52.318;4.644;2022-09-20T02:09:39;1.00;;;1.00;;
10150;SDS011;5116;52.318;4.644;2022-09-20T02:12:17;0.93;;;0.93;;
10150;SDS011;5116;52.318;4.644;2022-09-20T02:22:40;1.00;;;0.90;;
10150;SDS011;5116;52.318;4.644;2022-09-20T02:30:36;0.90;;;0.90;;
10150;SDS011;5116;52.318;4.644;2022-09-20T02:33:16;0.80;;;0.80;;
10150;SDS011;5116;52.318;4.644;2022-09-20T02:36:09;0.80;;;0.80;;
10150;SDS011;5116;52.318;4.644;2022-09-20T02:41:41;0.73;;;0.73;;
10150;SDS011;5116;52.318;4.644;2022-09-20T02:44:19;0.83;;;0.83;;
10150;SDS011;5116;52.318;4.644;2022-09-20T02:46:58;0.70;;;0.70;;
10150;SDS011;5116;52.318;4.644;2022-09-20T02:49:33;0.80;;;0.80;;
10150;SDS011;5116;52.318;4.644;2022-09-20T02:52:06;0.87;;;0.80;;
10150;SDS011;5116;52.318;4.644;2022-09-20T02:59:45;0.90;;;0.90;;
10150;SDS011;5116;52.318;4.644;2022-09-20T03:02:23;0.80;;;0.80;;
10150;SDS011;5116;52.318;4.644;2022-09-20T03:07:53;0.63;;;0.63;;
10150;SDS011;5116;52.318;4.644;2022-09-20T03:18:16;0.90;;;0.90;;
10150;SDS011;5116;52.318;4.644;2022-09-20T03:20:54;0.67;;;0.67;;
10150;SDS011;5116;52.318;4.644;2022-09-20T03:26:45;0.83;;;0.83;;
10150;SDS011;5116;52.318;4.644;2022-09-20T03:29:23;0.90;;;0.90;;
10150;SDS011;5116;52.318;4.644;2022-09-20T03:42:14;0.80;;;0.80;;
10150;SDS011;5116;52.318;4.644;2022-09-20T03:53:08;1.30;;;0.90;;
10150;SDS011;5116;52.318;4.644;2022-09-20T04:06:40;0.80;;;0.80;;
10150;SDS011;5116;52.318;4.644;2022-09-20T04:11:42;0.80;;;0.80;;
10150;SDS011;5116;52.318;4.644;2022-09-20T04:14:14;0.80;;;0.80;;
10150;SDS011;5116;52.318;4.644;2022-09-20T04:21:57;0.80;;;0.80;;
10150;SDS011;5116;52.318;4.644;2022-09-20T04:26:56;0.80;;;0.80;;
10150;SDS011;5116;52.318;4.644;2022-09-20T04:32:01;0.80;;;0.80;;
10150;SDS011;5116;52.318;4.644;2022-09-20T04:34:34;0.83;;;0.83;;
10150;SDS011;5116;52.318;4.644;2022-09-20T04:37:25;0.90;;;0.90;;
10150;SDS011;5116;52.318;4.644;2022-09-20T04:45:13;0.80;;;0.80;;
10150;SDS011;5116;52.318;4.644;2022-09-20T04:47:55;0.80;;;0.80;;
10150;SDS011;5116;52.318;4.644;2022-09-20T04:50:37;0.90;;;0.90;;
10150;SDS011;5116;52.318;4.644;2022-09-20T04:53:13;1.00;;;0.90;;
10150;SDS011;5116;52.318;4.644;2022-09-20T04:55:59;1.40;;;0.90;;
10150;SDS011;5116;52.318;4.644;2022-09-20T04:58:42;0.90;;;0.90;;
10150;SDS011;5116;52.318;4.644;2022-09-20T05:03:50;1.43;;;0.93;;
10150;SDS011;5116;52.318;4.644;2022-09-20T05:19:46;0.90;;;0.90;;
10150;SDS011;5116;52.318;4.644;2022-09-20T05:25:00;1.00;;;1.00;;
10150;SDS011;5116;52.318;4.644;2022-09-20T05:27:49;1.53;;;1.43;;
10150;SDS011;5116;52.318;4.644;2022-09-20T05:38:28;1.20;;;1.20;;
10150;SDS011;5116;52.318;4.644;2022-09-20T05:52:23;1.30;;;1.20;;
10150;SDS011;5116;52.318;4.644;2022-09-20T05:55:00;1.23;;;1.20;;
10150;SDS011;5116;52.318;4.644;2022-09-20T06:00:09;1.77;;;1.60;;
10150;SDS011;5116;52.318;4.644;2022-09-20T06:05:28;1.10;;;1.10;;
10150;SDS011;5116;52.318;4.644;2022-09-20T06:08:17;1.13;;;1.13;;
10150;SDS011;5116;52.318;4.644;2022-09-20T06:11:07;1.10;;;1.10;;
10150;SDS011;5116;52.318;4.644;2022-09-20T06:13:59;1.10;;;1.10;;
10150;SDS011;5116;52.318;4.644;2022-09-20T06:19:12;1.10;;;1.10;;
10150;SDS011;5116;52.318;4.644;2022-09-20T06:21:47;1.20;;;1.20;;
10150;SDS011;5116;52.318;4.644;2022-09-20T06:24:25;1.40;;;1.30;;
10150;SDS011;5116;52.318;4.644;2022-09-20T06:26:54;1.27;;;1.27;;
10150;SDS011;5116;52.318;4.644;2022-09-20T06:29:27;1.47;;;1.37;;
10150;SDS011;5116;52.318;4.644;2022-09-20T06:31:55;3.17;;;1.10;;
10150;SDS011;5116;52.318;4.644;2022-09-20T06:34:23;1.50;;;1.40;;
10150;SDS011;5116;52.318;4.644;2022-09-20T06:36:53;1.17;;;1.17;;
10150;SDS011;5116;52.318;4.644;2022-09-20T06:39:44;1.13;;;1.13;;
10150;SDS011;5116;52.318;4.644;2022-09-20T06:42:33;1.20;;;1.20;;
10150;SDS011;5116;52.318;4.644;2022-09-20T06:45:01;1.30;;;1.30;;
10150;SDS011;5116;52.318;4.644;2022-09-20T06:47:28;1.30;;;1.20;;
10150;SDS011;5116;52.318;4.644;2022-09-20T06:49:56;1.50;;;1.40;;
10150;SDS011;5116;52.318;4.644;2022-09-20T06:52:25;1.57;;;1.40;;
10150;SDS011;5116;52.318;4.644;2022-09-20T06:54:53;1.17;;;1.17;;
10150;SDS011;5116;52.318;4.644;2022-09-20T06:57:34;1.30;;;1.20;;
10150;SDS011;5116;52.318;4.644;2022-09-20T07:00:06;1.40;;;1.30;;
10150;SDS011;5116;52.318;4.644;2022-09-20T07:02:37;1.20;;;1.20;;
10150;SDS011;5116;52.318;4.644;2022-09-20T07:05:04;1.20;;;1.20;;
10150;SDS011;5116;52.318;4.644;2022-09-20T07:07:32;1.20;;;1.20;;
10150;SDS011;5116;52.318;4.644;2022-09-20T07:10:00;1.43;;;1.33;;
10150;SDS011;5116;52.318;4.644;2022-09-20T07:12:27;1.30;;;1.20;;
10150;SDS011;5116;52.318;4.644;2022-09-20T07:14:58;1.47;;;1.37;;
10150;SDS011;5116;52.318;4.644;2022-09-20T07:17:26;1.50;;;1.40;;
10150;SDS011;5116;52.318;4.644;2022-09-20T07:19:53;1.67;;;1.30;;
10150;SDS011;5116;52.318;4.644;2022-09-20T07:22:22;1.20;;;1.20;;
10150;SDS011;5116;52.318;4.644;2022-09-20T07:24:49;1.40;;;1.30;;
10150;SDS011;5116;52.318;4.644;2022-09-20T07:27:17;1.63;;;1.53;;
10150;SDS011;5116;52.318;4.644;2022-09-20T07:29:44;1.27;;;1.27;;
10150;SDS011;5116;52.318;4.644;2022-09-20T07:32:12;1.20;;;1.20;;
10150;SDS011;5116;52.318;4.644;2022-09-20T07:34:40;1.40;;;1.30;;
10150;SDS011;5116;52.318;4.644;2022-09-20T07:37:08;1.37;;;1.27;;
10150;SDS011;5116;52.318;4.644;2022-09-20T07:39:35;1.40;;;1.30;;
10150;SDS011;5116;52.318;4.644;2022-09-20T07:42:03;1.50;;;1.40;;
10150;SDS011;5116;52.318;4.644;2022-09-20T07:44:33;1.30;;;1.20;;
10150;SDS011;5116;52.318;4.644;2022-09-20T07:47:01;1.27;;;1.10;;
10150;SDS011;5116;52.318;4.644;2022-09-20T07:49:28;1.30;;;1.20;;
10150;SDS011;5116;52.318;4.644;2022-09-20T07:51:56;1.10;;;1.10;;
10150;SDS011;5116;52.318;4.644;2022-09-20T07:54:23;1.30;;;1.20;;
10150;SDS011;5116;52.318;4.644;2022-09-20T07:56:52;1.20;;;1.20;;
10150;SDS011;5116;52.318;4.644;2022-09-20T07:59:19;1.40;;;1.30;;
10150;SDS011;5116;52.318;4.644;2022-09-20T08:01:47;1.37;;;1.27;;
10150;SDS011;5116;52.318;4.644;2022-09-20T08:04:14;1.10;;;1.10;;
10150;SDS011;5116;52.318;4.644;2022-09-20T08:06:42;1.50;;;1.40;;
10150;SDS011;5116;52.318;4.644;2022-09-20T08:09:11;1.27;;;1.27;;
10150;SDS011;5116;52.318;4.644;2022-09-20T08:11:39;1.50;;;1.40;;
10150;SDS011;5116;52.318;4.644;2022-09-20T08:14:07;1.60;;;1.50;;
10150;SDS011;5116;52.318;4.644;2022-09-20T08:16:36;1.40;;;1.30;;
10150;SDS011;5116;52.318;4.644;2022-09-20T08:19:04;1.30;;;1.20;;
10150;SDS011;5116;52.318;4.644;2022-09-20T08:21:32;1.20;;;1.20;;
10150;SDS011;5116;52.318;4.644;2022-09-20T08:23:59;1.37;;;1.27;;
10150;SDS011;5116;52.318;4.644;2022-09-20T08:26:27;1.30;;;1.20;;
10150;SDS011;5116;52.318;4.644;2022-09-20T08:28:57;1.60;;;1.50;;
10150;SDS011;5116;52.318;4.644;2022-09-20T08:31:25;1.30;;;1.20;;
10150;SDS011;5116;52.318;4.644;2022-09-20T08:33:53;1.30;;;1.30;;
10150;SDS011;5116;52.318;4.644;2022-09-20T08:36:24;1.50;;;1.40;;
10150;SDS011;5116;52.318;4.644;2022-09-20T08:38:51;1.10;;;1.10;;
10150;SDS011;5116;52.318;4.644;2022-09-20T08:41:43;1.37;;;1.27;;
10150;SDS011;5116;52.318;4.644;2022-09-20T08:44:22;1.10;;;1.10;;
10150;SDS011;5116;52.318;4.644;2022-09-20T08:46:52;1.40;;;1.30;;
10150;SDS011;5116;52.318;4.644;2022-09-20T08:49:24;1.40;;;1.30;;
10150;SDS011;5116;52.318;4.644;2022-09-20T08:51:52;2.23;;;1.20;;
10150;SDS011;5116;52.318;4.644;2022-09-20T08:54:24;1.30;;;1.20;;
10150;SDS011;5116;52.318;4.644;2022-09-20T08:57:00;1.00;;;1.00;;
10150;SDS011;5116;52.318;4.644;2022-09-20T08:59:30;1.00;;;1.00;;
10150;SDS011;5116;52.318;4.644;2022-09-20T09:01:58;1.38;;;1.33;;
10150;SDS011;5116;52.318;4.644;2022-09-20T09:04:30;1.40;;;1.30;;
10150;SDS011;5116;52.318;4.644;2022-09-20T09:06:59;1.50;;;1.40;;
10150;SDS011;5116;52.318;4.644;2022-09-20T09:09:27;1.30;;;1.30;;
10150;SDS011;5116;52.318;4.644;2022-09-20T09:11:55;1.40;;;1.40;;
10150;SDS011;5116;52.318;4.644;2022-09-20T09:14:30;1.60;;;1.50;;
10150;SDS011;5116;52.318;4.644;2022-09-20T09:17:23;1.33;;;1.23;;
10150;SDS011;5116;52.318;4.644;2022-09-20T09:20:06;1.30;;;1.30;;
10150;SDS011;5116;52.318;4.644;2022-09-20T09:22:41;1.20;;;1.20;;
10150;SDS011;5116;52.318;4.644;2022-09-20T09:27:49;1.60;;;1.50;;
10150;SDS011;5116;52.318;4.644;2022-09-20T09:30:18;1.73;;;1.30;;
10150;SDS011;5116;52.318;4.644;2022-09-20T09:32:46;1.40;;;1.40;;
10150;SDS011;5116;52.318;4.644;2022-09-20T09:35:24;1.30;;;1.20;;
10150;SDS011;5116;52.318;4.644;2022-09-20T09:37:53;1.40;;;1.40;;
10150;SDS011;5116;52.318;4.644;2022-09-20T09:40:22;1.70;;;1.60;;
10150;SDS011;5116;52.318;4.644;2022-09-20T09:42:53;1.20;;;1.20;;
10150;SDS011;5116;52.318;4.644;2022-09-20T09:45:42;1.33;;;1.30;;
10150;SDS011;5116;52.318;4.644;2022-09-20T09:48:19;1.20;;;1.20;;
10150;SDS011;5116;52.318;4.644;2022-09-20T09:50:47;1.83;;;1.30;;
10150;SDS011;5116;52.318;4.644;2022-09-20T09:53:16;1.20;;;1.20;;
10150;SDS011;5116;52.318;4.644;2022-09-20T09:58:24;1.33;;;1.23;;
10150;SDS011;5116;52.318;4.644;2022-09-20T10:00:53;1.30;;;1.20;;
10150;SDS011;5116;52.318;4.644;2022-09-20T10:03:27;1.10;;;1.10;;
10150;SDS011;5116;52.318;4.644;2022-09-20T10:06:03;1.10;;;1.10;;
10150;SDS011;5116;52.318;4.644;2022-09-20T10:11:16;1.10;;;1.10;;
10150;SDS011;5116;52.318;4.644;2022-09-20T10:19:32;1.40;;;1.30;;
10150;SDS011;5116;52.318;4.644;2022-09-20T10:22:05;1.20;;;1.20;;
10150;SDS011;5116;52.318;4.644;2022-09-20T10:24:42;1.00;;;1.00;;
10150;SDS011;5116;52.318;4.644;2022-09-20T10:30:01;1.00;;;1.00;;
10150;SDS011;5116;52.318;4.644;2022-09-20T10:35:22;1.20;;;1.20;;
10150;SDS011;5116;52.318;4.644;2022-09-20T10:38:04;1.17;;;1.10;;
10150;SDS011;5116;52.318;4.644;2022-09-20T10:40:34;1.00;;;1.00;;
10150;SDS011;5116;52.318;4.644;2022-09-20T10:43:26;0.90;;;0.90;;
10150;SDS011;5116;52.318;4.644;2022-09-20T10:46:02;1.00;;;1.00;;
10150;SDS011;5116;52.318;4.644;2022-09-20T10:49:06;0.93;;;0.93;;
10150;SDS011;5116;52.318;4.644;2022-09-20T10:51:43;1.00;;;1.00;;
10150;SDS011;5116;52.318;4.644;2022-09-20T10:55:01;1.50;;;1.40;;
10150;SDS011;5116;52.318;4.644;2022-09-20T10:58:11;1.20;;;1.20;;
10150;SDS011;5116;52.318;4.644;2022-09-20T11:00:07;1.20;;;1.10;;
10150;SDS011;5116;52.318;4.644;2022-09-20T11:02:44;1.53;;;1.10;;
10150;SDS011;5116;52.318;4.644;2022-09-20T11:16:03;1.03;;;1.03;;
10150;SDS011;5116;52.318;4.644;2022-09-20T11:18:36;0.93;;;0.93;;
10150;SDS011;5116;52.318;4.644;2022-09-20T11:21:49;1.00;;;1.00;;
10150;SDS011;5116;52.318;4.644;2022-09-20T11:24:00;1.23;;;1.13;;
10150;SDS011;5116;52.318;4.644;2022-09-20T11:26:37;0.90;;;0.90;;
10150;SDS011;5116;52.318;4.644;2022-09-20T11:29:17;0.90;;;0.90;;
10150;SDS011;5116;52.318;4.644;2022-09-20T11:31:47;1.20;;;1.20;;
10150;SDS011;5116;52.318;4.644;2022-09-20T11:34:21;0.90;;;0.90;;
10150;SDS011;5116;52.318;4.644;2022-09-20T11:36:52;0.93;;;0.93;;
10150;SDS011;5116;52.318;4.644;2022-09-20T11:39:26;1.00;;;1.00;;
10150;SDS011;5116;52.318;4.644;2022-09-20T11:41:55;0.97;;;0.97;;
10150;SDS011;5116;52.318;4.644;2022-09-20T11:44:25;1.00;;;1.00;;
10150;SDS011;5116;52.318;4.644;2022-09-20T11:47:00;1.00;;;1.00;;
10150;SDS011;5116;52.318;4.644;2022-09-20T11:49:31;0.93;;;0.93;;
10150;SDS011;5116;52.318;4.644;2022-09-20T11:56:59;0.97;;;0.97;;
10150;SDS011;5116;52.318;4.644;2022-09-20T11:59:33;1.23;;;1.13;;
10150;SDS011;5116;52.318;4.644;2022-09-20T12:02:02;1.03;;;1.03;;
10150;SDS011;5116;52.318;4.644;2022-09-20T12:04:31;0.90;;;0.90;;
10150;SDS011;5116;52.318;4.644;2022-09-20T12:07:06;1.10;;;1.00;;
10150;SDS011;5116;52.318;4.644;2022-09-20T12:09:41;0.93;;;0.90;;
10150;SDS011;5116;52.318;4.644;2022-09-20T12:12:24;1.00;;;1.00;;
10150;SDS011;5116;52.318;4.644;2022-09-20T12:14:54;3.17;;;1.00;;
10150;SDS011;5116;52.318;4.644;2022-09-20T12:28:34;1.07;;;1.07;;
10150;SDS011;5116;52.318;4.644;2022-09-20T12:36:32;1.23;;;1.00;;
10150;SDS011;5116;52.318;4.644;2022-09-20T12:41:42;1.00;;;1.00;;
10150;SDS011;5116;52.318;4.644;2022-09-20T12:44:34;0.90;;;0.90;;
10150;SDS011;5116;52.318;4.644;2022-09-20T12:49:34;0.90;;;0.90;;
10150;SDS011;5116;52.318;4.644;2022-09-20T12:52:22;0.90;;;0.90;;
10150;SDS011;5116;52.318;4.644;2022-09-20T12:55:10;0.80;;;0.80;;
10150;SDS011;5116;52.318;4.644;2022-09-20T12:57:38;0.90;;;0.90;;
10150;SDS011;5116;52.318;4.644;2022-09-20T13:00:06;0.87;;;0.87;;
10150;SDS011;5116;52.318;4.644;2022-09-20T13:02:41;0.90;;;0.90;;
10150;SDS011;5116;52.318;4.644;2022-09-20T13:07:55;1.00;;;1.00;;
10150;SDS011;5116;52.318;4.644;2022-09-20T13:10:27;1.47;;;0.90;;
10150;SDS011;5116;52.318;4.644;2022-09-20T13:13:00;0.80;;;0.80;;
10150;SDS011;5116;52.318;4.644;2022-09-20T13:15:29;0.90;;;0.90;;
10150;SDS011;5116;52.318;4.644;2022-09-20T13:17:59;1.00;;;1.00;;
10150;SDS011;5116;52.318;4.644;2022-09-20T13:20:27;1.07;;;1.00;;
10150;SDS011;5116;52.318;4.644;2022-09-20T13:22:56;0.87;;;0.87;;
10150;SDS011;5116;52.318;4.644;2022-09-20T13:25:26;0.90;;;0.90;;
10150;SDS011;5116;52.318;4.644;2022-09-20T13:28:14;0.80;;;0.80;;
10150;SDS011;5116;52.318;4.644;2022-09-20T13:30:46;0.80;;;0.80;;
10150;SDS011;5116;52.318;4.644;2022-09-20T13:33:21;0.70;;;0.70;;
10150;SDS011;5116;52.318;4.644;2022-09-20T13:35:52;0.90;;;0.90;;
10150;SDS011;5116;52.318;4.644;2022-09-20T13:38:22;0.80;;;0.80;;
10150;SDS011;5116;52.318;4.644;2022-09-20T13:40:50;0.80;;;0.80;;
10150;SDS011;5116;52.318;4.644;2022-09-20T13:43:30;0.90;;;0.90;;
10150;SDS011;5116;52.318;4.644;2022-09-20T13:48:38;0.80;;;0.80;;
10150;SDS011;5116;52.318;4.644;2022-09-20T13:51:16;0.90;;;0.90;;
10150;SDS011;5116;52.318;4.644;2022-09-20T13:53:44;0.80;;;0.80;;
10150;SDS011;5116;52.318;4.644;2022-09-20T13:56:16;0.97;;;0.90;;
10150;SDS011;5116;52.318;4.644;2022-09-20T13:58:44;0.70;;;0.70;;
10150;SDS011;5116;52.318;4.644;2022-09-20T14:01:27;0.80;;;0.80;;
10150;SDS011;5116;52.318;4.644;2022-09-20T14:03:57;0.80;;;0.80;;
10150;SDS011;5116;52.318;4.644;2022-09-20T14:06:25;1.90;;;0.87;;
10150;SDS011;5116;52.318;4.644;2022-09-20T14:08:54;0.90;;;0.90;;
10150;SDS011;5116;52.318;4.644;2022-09-20T14:11:29;0.93;;;0.93;;
10150;SDS011;5116;52.318;4.644;2022-09-20T14:13:59;0.83;;;0.83;;
10150;SDS011;5116;52.318;4.644;2022-09-20T14:16:32;0.80;;;0.80;;
10150;SDS011;5116;52.318;4.644;2022-09-20T14:18:59;1.00;;;1.00;;
10150;SDS011;5116;52.318;4.644;2022-09-20T14:21:30;0.80;;;0.80;;
10150;SDS011;5116;52.318;4.644;2022-09-20T14:23:58;0.80;;;0.80;;
10150;SDS011;5116;52.318;4.644;2022-09-20T14:26:30;0.80;;;0.80;;
10150;SDS011;5116;52.318;4.644;2022-09-20T14:31:51;1.20;;;0.87;;
10150;SDS011;5116;52.318;4.644;2022-09-20T14:34:19;0.87;;;0.87;;
10150;SDS011;5116;52.318;4.644;2022-09-20T14:36:47;0.90;;;0.90;;
10150;SDS011;5116;52.318;4.644;2022-09-20T14:39:16;1.00;;;1.00;;
10150;SDS011;5116;52.318;4.644;2022-09-20T14:41:44;0.80;;;0.80;;
10150;SDS011;5116;52.318;4.644;2022-09-20T14:44:22;0.90;;;0.90;;
10150;SDS011;5116;52.318;4.644;2022-09-20T14:46:51;0.90;;;0.87;;
10150;SDS011;5116;52.318;4.644;2022-09-20T14:51:47;0.70;;;0.70;;
10150;SDS011;5116;52.318;4.644;2022-09-20T14:54:24;0.90;;;0.90;;
10150;SDS011;5116;52.318;4.644;2022-09-20T14:56:53;0.80;;;0.80;;
10150;SDS011;5116;52.318;4.644;2022-09-20T14:59:24;0.90;;;0.90;;
10150;SDS011;5116;52.318;4.644;2022-09-20T15:01:53;0.80;;;0.80;;
10150;SDS011;5116;52.318;4.644;2022-09-20T15:04:22;0.90;;;0.90;;
10150;SDS011;5116;52.318;4.644;2022-09-20T15:06:50;1.10;;;1.00;;
10150;SDS011;5116;52.318;4.644;2022-09-20T15:09:18;0.90;;;0.90;;
10150;SDS011;5116;52.318;4.644;2022-09-20T15:11:57;0.90;;;0.90;;
10150;SDS011;5116;52.318;4.644;2022-09-20T15:14:25;0.80;;;0.80;;
10150;SDS011;5116;52.318;4.644;2022-09-20T15:16:52;0.90;;;0.90;;
10150;SDS011;5116;52.318;4.644;2022-09-20T15:19:19;0.90;;;0.90;;
10150;SDS011;5116;52.318;4.644;2022-09-20T15:21:46;0.87;;;0.87;;
10150;SDS011;5116;52.318;4.644;2022-09-20T15:24:14;1.00;;;1.00;;
10150;SDS011;5116;52.318;4.644;2022-09-20T15:26:43;0.80;;;0.80;;
10150;SDS011;5116;52.318;4.644;2022-09-20T15:29:14;0.87;;;0.87;;
10150;SDS011;5116;52.318;4.644;2022-09-20T15:31:42;0.70;;;0.70;;
10150;SDS011;5116;52.318;4.644;2022-09-20T15:34:10;0.83;;;0.83;;
10150;SDS011;5116;52.318;4.644;2022-09-20T15:36:38;1.00;;;1.00;;
10150;SDS011;5116;52.318;4.644;2022-09-20T15:39:06;0.87;;;0.87;;
10150;SDS011;5116;52.318;4.644;2022-09-20T15:41:34;0.83;;;0.83;;
10150;SDS011;5116;52.318;4.644;2022-09-20T15:44:02;0.90;;;0.90;;
10150;SDS011;5116;52.318;4.644;2022-09-20T15:46:29;0.80;;;0.80;;
10150;SDS011;5116;52.318;4.644;2022-09-20T15:48:58;0.70;;;0.70;;
10150;SDS011;5116;52.318;4.644;2022-09-20T15:51:26;0.90;;;0.90;;
10150;SDS011;5116;52.318;4.644;2022-09-20T15:53:57;0.83;;;0.83;;
10150;SDS011;5116;52.318;4.644;2022-09-20T15:56:29;0.90;;;0.90;;
10150;SDS011;5116;52.318;4.644;2022-09-20T15:58:58;0.90;;;0.90;;
10150;SDS011;5116;52.318;4.644;2022-09-20T16:01:47;1.00;;;1.00;;
10150;SDS011;5116;52.318;4.644;2022-09-20T16:04:14;0.90;;;0.90;;
10150;SDS011;5116;52.318;4.644;2022-09-20T16:06:44;0.97;;;0.87;;
10150;SDS011;5116;52.318;4.644;2022-09-20T16:09:12;2.67;;;1.17;;
10150;SDS011;5116;52.318;4.644;2022-09-20T16:11:39;0.90;;;0.90;;
10150;SDS011;5116;52.318;4.644;2022-09-20T16:14:07;1.50;;;1.20;;
10150;SDS011;5116;52.318;4.644;2022-09-20T16:16:34;1.10;;;1.00;;
10150;SDS011;5116;52.318;4.644;2022-09-20T16:19:06;0.90;;;0.90;;
10150;SDS011;5116;52.318;4.644;2022-09-20T16:21:44;1.10;;;1.00;;
10150;SDS011;5116;52.318;4.644;2022-09-20T16:24:26;0.90;;;0.90;;
10150;SDS011;5116;52.318;4.644;2022-09-20T16:26:54;1.00;;;1.00;;
10150;SDS011;5116;52.318;4.644;2022-09-20T16:29:21;1.07;;;1.07;;
10150;SDS011;5116;52.318;4.644;2022-09-20T16:31:50;1.03;;;1.00;;
10150;SDS011;5116;52.318;4.644;2022-09-20T16:34:22;0.90;;;0.90;;
10150;SDS011;5116;52.318;4.644;2022-09-20T16:36:56;1.00;;;1.00;;
10150;SDS011;5116;52.318;4.644;2022-09-20T16:39:24;1.00;;;1.00;;
10150;SDS011;5116;52.318;4.644;2022-09-20T16:41:53;0.90;;;0.90;;
10150;SDS011;5116;52.318;4.644;2022-09-20T16:44:22;2.10;;;1.10;;
10150;SDS011;5116;52.318;4.644;2022-09-20T16:46:50;0.80;;;0.80;;
10150;SDS011;5116;52.318;4.644;2022-09-20T16:49:17;0.80;;;0.80;;
10150;SDS011;5116;52.318;4.644;2022-09-20T16:51:45;0.90;;;0.90;;
10150;SDS011;5116;52.318;4.644;2022-09-20T16:54:13;0.90;;;0.90;;
10150;SDS011;5116;52.318;4.644;2022-09-20T16:56:42;0.90;;;0.90;;
10150;SDS011;5116;52.318;4.644;2022-09-20T16:59:10;0.90;;;0.90;;
10150;SDS011;5116;52.318;4.644;2022-09-20T17:01:38;0.70;;;0.70;;
10150;SDS011;5116;52.318;4.644;2022-09-20T17:04:06;0.90;;;0.90;;
10150;SDS011;5116;52.318;4.644;2022-09-20T17:06:35;2.60;;;0.90;;
10150;SDS011;5116;52.318;4.644;2022-09-20T17:09:04;1.00;;;1.00;;
10150;SDS011;5116;52.318;4.644;2022-09-20T17:11:36;0.80;;;0.80;;
10150;SDS011;5116;52.318;4.644;2022-09-20T17:14:04;0.90;;;0.90;;
10150;SDS011;5116;52.318;4.644;2022-09-20T17:16:35;0.83;;;0.83;;
10150;SDS011;5116;52.318;4.644;2022-09-20T17:19:07;1.00;;;0.90;;
10150;SDS011;5116;52.318;4.644;2022-09-20T17:21:35;0.80;;;0.80;;
10150;SDS011;5116;52.318;4.644;2022-09-20T17:24:04;0.97;;;0.97;;
10150;SDS011;5116;52.318;4.644;2022-09-20T17:26:36;0.80;;;0.80;;
10150;SDS011;5116;52.318;4.644;2022-09-20T17:29:04;0.90;;;0.90;;
10150;SDS011;5116;52.318;4.644;2022-09-20T17:31:33;2.33;;;0.90;;
10150;SDS011;5116;52.318;4.644;2022-09-20T17:34:02;0.90;;;0.90;;
10150;SDS011;5116;52.318;4.644;2022-09-20T17:36:33;0.90;;;0.90;;
10150;SDS011;5116;52.318;4.644;2022-09-20T17:39:01;1.07;;;0.90;;
10150;SDS011;5116;52.318;4.644;2022-09-20T17:41:30;0.93;;;0.93;;
10150;SDS011;5116;52.318;4.644;2022-09-20T17:43:59;0.80;;;0.80;;
10150;SDS011;5116;52.318;4.644;2022-09-20T17:46:34;0.90;;;0.90;;
10150;SDS011;5116;52.318;4.644;2022-09-20T17:49:03;0.90;;;0.90;;
10150;SDS011;5116;52.318;4.644;2022-09-20T17:51:32;1.10;;;1.10;;
10150;SDS011;5116;52.318;4.644;2022-09-20T17:54:00;1.00;;;1.00;;
10150;SDS011;5116;52.318;4.644;2022-09-20T17:56:28;0.93;;;0.93;;
10150;SDS011;5116;52.318;4.644;2022-09-20T17:58:57;1.23;;;1.00;;
10150;SDS011;5116;52.318;4.644;2022-09-20T18:01:25;1.10;;;0.90;;
10150;SDS011;5116;52.318;4.644;2022-09-20T18:03:53;1.10;;;0.90;;
10150;SDS011;5116;52.318;4.644;2022-09-20T18:06:28;1.07;;;1.07;;
10150;SDS011;5116;52.318;4.644;2022-09-20T18:08:57;1.20;;;1.10;;
10150;SDS011;5116;52.318;4.644;2022-09-20T18:11:31;1.00;;;0.90;;
10150;SDS011;5116;52.318;4.644;2022-09-20T18:13:59;0.80;;;0.80;;
10150;SDS011;5116;52.318;4.644;2022-09-20T18:16:27;0.80;;;0.80;;
10150;SDS011;5116;52.318;4.644;2022-09-20T18:18:56;0.90;;;0.90;;
10150;SDS011;5116;52.318;4.644;2022-09-20T18:21:25;0.90;;;0.90;;
10150;SDS011;5116;52.318;4.644;2022-09-20T18:23:53;0.80;;;0.80;;
10150;SDS011;5116;52.318;4.644;2022-09-20T18:26:24;0.80;;;0.80;;
10150;SDS011;5116;52.318;4.644;2022-09-20T18:29:02;0.90;;;0.90;;
10150;SDS011;5116;52.318;4.644;2022-09-20T18:31:32;1.10;;;1.00;;
10150;SDS011;5116;52.318;4.644;2022-09-20T18:34:02;0.90;;;0.90;;
10150;SDS011;5116;52.318;4.644;2022-09-20T18:36:30;0.80;;;0.80;;
10150;SDS011;5116;52.318;4.644;2022-09-20T18:38:58;0.90;;;0.90;;
10150;SDS011;5116;52.318;4.644;2022-09-20T18:41:26;0.90;;;0.90;;
10150;SDS011;5116;52.318;4.644;2022-09-20T18:43:54;0.83;;;0.83;;
10150;SDS011;5116;52.318;4.644;2022-09-20T18:46:22;3.00;;;0.90;;
10150;SDS011;5116;52.318;4.644;2022-09-20T18:48:50;0.80;;;0.80;;
10150;SDS011;5116;52.318;4.644;2022-09-20T18:51:18;0.80;;;0.80;;
10150;SDS011;5116;52.318;4.644;2022-09-20T18:53:46;0.90;;;0.90;;
10150;SDS011;5116;52.318;4.644;2022-09-20T18:56:21;0.80;;;0.80;;
10150;SDS011;5116;52.318;4.644;2022-09-20T18:58:49;0.83;;;0.83;;
10150;SDS011;5116;52.318;4.644;2022-09-20T19:01:25;0.90;;;0.90;;
10150;SDS011;5116;52.318;4.644;2022-09-20T19:03:59;1.00;;;0.90;;
10150;SDS011;5116;52.318;4.644;2022-09-20T19:06:30;0.80;;;0.80;;
10150;SDS011;5116;52.318;4.644;2022-09-20T19:09:23;0.83;;;0.80;;